Time;durP1;ratioP1;P1;durP2;ratioP2;P2;SDS_P1;SDS_P2;PMS_P1;PMS_P2;Temp;Humidity;BMP_temperature;BMP_pressure;BME280_temperature;BME280_humidity;BME280_pressure;Samples;Min_cycle;Max_cycle;Signal;HPM_P1;HPM_P2
2022/12/02 00:02:33;;;;;;;50.00;23.88;;;4.30;99.90;;;;;;5127870;28;20042;-47
2022/12/02 00:05:23;;;;;;;50.67;23.23;;;4.30;99.90;;;;;;5129957;28;20118;-50
2022/12/02 00:07:49;;;;;;;46.45;20.98;;;4.30;99.90;;;;;;5129531;28;20049;-47
2022/12/02 00:10:24;;;;;;;51.20;23.40;;;4.50;99.90;;;;;;5111711;28;20031;-50
2022/12/02 00:12:50;;;;;;;50.88;22.23;;;4.30;99.90;;;;;;5129718;27;20084;-46
2022/12/02 00:15:44;;;;;;;54.22;22.48;;;4.30;99.90;;;;;;5129623;27;20039;-47
2022/12/02 00:18:14;;;;;;;41.28;19.90;;;4.20;99.90;;;;;;5133791;27;20386;-46
2022/12/02 00:20:42;;;;;;;45.88;21.70;;;4.20;99.90;;;;;;5133583;27;20042;-50
2022/12/02 00:23:07;;;;;;;46.72;21.30;;;4.10;99.90;;;;;;5133463;27;20100;-46
2022/12/02 00:25:33;;;;;;;50.13;22.55;;;4.20;99.90;;;;;;5133595;27;20039;-47
2022/12/02 00:28:00;;;;;;;47.95;21.90;;;4.10;99.90;;;;;;5134117;27;20386;-46
2022/12/02 00:30:26;;;;;;;50.72;23.20;;;4.10;99.90;;;;;;5115440;27;20099;-45
2022/12/02 00:32:52;;;;;;;44.17;21.13;;;4.20;99.90;;;;;;5097793;27;20042;-47
2022/12/02 00:35:18;;;;;;;43.42;19.70;;;4.40;99.90;;;;;;5132548;27;20370;-46
2022/12/02 00:37:44;;;;;;;49.05;21.55;;;4.00;99.90;;;;;;5133507;27;20039;-46
2022/12/02 00:40:11;;;;;;;45.90;21.48;;;4.00;99.90;;;;;;5133570;27;20039;-49
2022/12/02 00:42:36;;;;;;;48.20;21.58;;;4.10;99.90;;;;;;5133368;27;20489;-48
2022/12/02 00:47:47;;;;;;;50.75;22.00;;;4.00;99.90;;;;;;5133345;27;20043;-46
2022/12/02 00:50:13;;;;;;;49.83;21.83;;;3.90;99.90;;;;;;5132958;27;20050;-47
2022/12/02 00:52:38;;;;;;;48.40;21.48;;;4.00;99.90;;;;;;5114636;27;20500;-46
2022/12/02 00:55:04;;;;;;;50.42;21.85;;;3.90;99.90;;;;;;5132807;27;20039;-48
2022/12/02 00:57:30;;;;;;;47.13;20.92;;;3.80;99.90;;;;;;5133322;27;20035;-48
2022/12/02 00:59:56;;;;;;;53.17;21.98;;;3.80;99.90;;;;;;5133064;27;20035;-50
2022/12/02 01:02:21;;;;;;;48.97;20.42;;;3.90;99.90;;;;;;5133147;27;20510;-47
2022/12/02 01:04:47;;;;;;;53.15;22.20;;;3.70;99.90;;;;;;5132848;27;20039;-47
2022/12/02 01:07:13;;;;;;;50.85;22.05;;;3.80;99.90;;;;;;5132726;27;20035;-48
2022/12/02 01:09:40;;;;;;;56.20;22.73;;;3.70;99.90;;;;;;5114433;27;20035;-47
2022/12/02 01:12:06;;;;;;;54.55;22.83;;;3.70;99.90;;;;;;5132993;27;20702;-48
2022/12/02 01:14:32;;;;;;;55.20;21.90;;;3.60;99.90;;;;;;5133014;27;20061;-49
2022/12/02 01:16:57;;;;;;;51.80;20.67;;;3.70;99.90;;;;;;5113734;27;20027;-47
2022/12/02 01:19:23;;;;;;;58.72;22.52;;;3.70;99.90;;;;;;5132591;27;20394;-51
2022/12/02 01:21:49;;;;;;;58.33;23.50;;;3.60;99.90;;;;;;5132223;27;20488;-47
2022/12/02 01:24:15;;;;;;;53.55;22.88;;;3.60;99.90;;;;;;5132555;27;20031;-49
2022/12/02 01:26:40;;;;;;;56.47;21.58;;;3.60;99.90;;;;;;5131872;27;20034;-51
2022/12/02 01:29:06;;;;;;;55.47;22.73;;;3.80;99.90;;;;;;5132545;27;20035;-47
2022/12/02 01:31:33;;;;;;;60.97;21.60;;;3.60;99.90;;;;;;5132724;27;20092;-48
2022/12/02 01:33:58;;;;;;;51.58;21.77;;;3.70;99.90;;;;;;5128760;27;20050;-48
2022/12/02 01:36:24;;;;;;;54.85;21.73;;;3.70;99.90;;;;;;5102644;28;20052;-46
2022/12/02 01:38:50;;;;;;;61.22;23.25;;;3.50;99.90;;;;;;5108072;28;20035;-45
2022/12/02 01:41:16;;;;;;;57.58;21.65;;;3.60;99.90;;;;;;5107426;28;20462;-46
2022/12/02 01:43:42;;;;;;;59.55;22.75;;;3.60;99.90;;;;;;5104516;28;20041;-47
2022/12/02 01:46:07;;;;;;;56.25;22.58;;;3.60;99.90;;;;;;5102874;28;20122;-47
2022/12/02 01:48:35;;;;;;;57.38;22.25;;;3.60;99.90;;;;;;5111550;28;20110;-46
2022/12/02 01:51:02;;;;;;;59.80;21.80;;;3.60;99.90;;;;;;5111447;28;20070;-46
2022/12/02 01:53:28;;;;;;;54.28;21.60;;;3.60;99.90;;;;;;5110300;28;20428;-47
2022/12/02 01:55:54;;;;;;;56.47;22.15;;;3.60;99.90;;;;;;5111577;28;20067;-50
2022/12/02 01:58:24;;;;;;;53.85;22.15;;;3.60;99.90;;;;;;5111363;27;20035;-48
2022/12/02 02:00:50;;;;;;;56.22;21.17;;;4.10;99.90;;;;;;5110201;28;20036;-46
2022/12/02 02:03:16;;;;;;;51.78;20.83;;;3.60;99.90;;;;;;5111209;28;20047;-48
2022/12/02 02:05:42;;;;;;;56.53;22.05;;;3.70;99.90;;;;;;5111036;28;20038;-52
2022/12/02 02:08:11;;;;;;;54.53;21.13;;;3.50;99.90;;;;;;5110509;28;20048;-47
2022/12/02 02:10:38;;;;;;;52.67;20.55;;;3.60;99.90;;;;;;5109500;28;20046;-48
2022/12/02 02:13:07;;;;;;;57.67;21.40;;;3.60;99.90;;;;;;5111261;28;20474;-51
2022/12/02 02:15:34;;;;;;;57.40;21.55;;;3.50;99.90;;;;;;5111216;28;20036;-51
2022/12/02 02:18:00;;;;;;;50.08;19.83;;;3.60;99.90;;;;;;5109752;28;20032;-51
2022/12/02 02:20:26;;;;;;;59.08;21.60;;;3.50;99.90;;;;;;5110355;28;20043;-48
2022/12/02 02:23:07;;;;;;;55.20;21.27;;;3.60;99.90;;;;;;5108544;28;20484;-47
2022/12/02 02:25:42;;;;;;;55.80;20.55;;;3.50;99.90;;;;;;5110577;28;20071;-50
2022/12/02 02:28:08;;;;;;;50.72;20.17;;;3.50;99.90;;;;;;5109599;28;20061;-48
2022/12/02 02:30:35;;;;;;;57.20;22.83;;;3.50;99.90;;;;;;5110964;28;20379;-51
2022/12/02 02:33:05;;;;;;;57.22;20.63;;;3.50;99.90;;;;;;5110552;28;20078;-50
2022/12/02 02:35:33;;;;;;;56.03;21.88;;;3.50;99.90;;;;;;5121441;27;20047;-52
2022/12/02 02:37:58;;;;;;;58.97;22.95;;;3.40;99.90;;;;;;5130428;27;21088;-48
2022/12/02 02:40:26;;;;;;;61.20;22.15;;;3.40;99.90;;;;;;5112985;27;20050;-50
2022/12/02 02:42:55;;;;;;;55.95;20.35;;;3.50;99.90;;;;;;5131256;27;20529;-49
2022/12/02 02:45:24;;;;;;;54.70;20.60;;;3.40;99.90;;;;;;5131314;27;20050;-47
2022/12/02 02:47:50;;;;;;;55.60;21.83;;;3.80;99.90;;;;;;5130988;27;20092;-53
2022/12/02 02:50:17;;;;;;;56.88;21.38;;;3.50;99.90;;;;;;5130495;27;20043;-48
2022/12/02 02:52:42;;;;;;;52.63;22.15;;;3.50;99.90;;;;;;5130626;27;20066;-50
2022/12/02 02:55:16;;;;;;;54.30;20.88;;;3.40;99.90;;;;;;5130608;27;20067;-48
2022/12/02 02:57:42;;;;;;;54.78;20.55;;;3.40;99.90;;;;;;5130972;27;20042;-51
2022/12/02 03:00:08;;;;;;;50.95;20.65;;;3.40;99.90;;;;;;5130909;27;20031;-50
2022/12/02 03:02:34;;;;;;;55.83;21.77;;;3.40;99.90;;;;;;5130864;27;20504;-48
2022/12/02 03:05:00;;;;;;;52.25;20.48;;;3.50;99.90;;;;;;5112058;27;20118;-49
2022/12/02 03:07:26;;;;;;;55.63;21.30;;;3.50;99.90;;;;;;5131548;27;20039;-47
2022/12/02 03:09:52;;;;;;;48.83;20.33;;;3.40;99.90;;;;;;5112608;27;20084;-46
2022/12/02 03:12:18;;;;;;;55.67;20.70;;;3.40;99.90;;;;;;5130680;27;20034;-47
2022/12/02 03:14:44;;;;;;;49.45;20.17;;;3.50;99.90;;;;;;5130443;27;20122;-47
2022/12/02 03:17:11;;;;;;;48.95;21.02;;;3.30;99.90;;;;;;5130759;27;20430;-46
2022/12/02 03:19:37;;;;;;;49.90;20.58;;;3.30;99.90;;;;;;5130359;27;20091;-47
2022/12/02 03:22:03;;;;;;;48.10;19.45;;;3.30;99.90;;;;;;5129571;27;20049;-48
2022/12/02 03:24:31;;;;;;;45.95;19.55;;;3.30;99.90;;;;;;5130203;27;20043;-47
2022/12/02 03:26:58;;;;;;;44.83;18.27;;;3.30;99.90;;;;;;5111729;28;20038;-48
2022/12/02 03:29:24;;;;;;;47.80;18.58;;;3.30;99.90;;;;;;5130257;27;20027;-47
2022/12/02 03:31:50;;;;;;;44.33;19.02;;;3.30;99.90;;;;;;5130438;27;20494;-47
2022/12/02 03:34:16;;;;;;;51.88;19.83;;;3.20;99.90;;;;;;5129922;27;20114;-47
2022/12/02 03:36:42;;;;;;;45.95;18.67;;;3.20;99.90;;;;;;5130069;28;20036;-48
2022/12/02 03:39:09;;;;;;;46.40;19.48;;;3.30;99.90;;;;;;5130178;28;20039;-48
2022/12/02 03:41:35;;;;;;;48.13;19.05;;;3.20;99.90;;;;;;5130209;28;20047;-48
2022/12/02 03:44:01;;;;;;;40.42;16.65;;;3.20;99.90;;;;;;5130289;28;20031;-48
2022/12/02 03:46:29;;;;;;;41.80;16.85;;;3.50;99.90;;;;;;5130291;28;20420;-48
2022/12/02 03:48:56;;;;;;;39.88;16.40;;;3.10;99.90;;;;;;5132066;27;20035;-53
2022/12/02 03:51:21;;;;;;;43.30;17.70;;;3.20;99.90;;;;;;5134076;27;20074;-49
2022/12/02 03:53:47;;;;;;;37.00;16.33;;;3.20;99.90;;;;;;5134091;27;20078;-48
2022/12/02 03:56:13;;;;;;;40.65;16.15;;;3.10;99.90;;;;;;5115856;27;20039;-51
2022/12/02 03:58:45;;;;;;;36.85;15.57;;;3.20;99.90;;;;;;5132995;27;20563;-48
2022/12/02 04:01:11;;;;;;;34.13;15.68;;;3.20;99.90;;;;;;5134419;27;20434;-49
2022/12/02 04:03:36;;;;;;;39.88;16.60;;;3.10;99.90;;;;;;5133955;27;20067;-52
2022/12/02 04:06:03;;;;;;;33.72;14.90;;;3.20;99.90;;;;;;5115892;27;20073;-47
2022/12/02 04:08:29;;;;;;;34.92;14.85;;;3.20;99.90;;;;;;5134038;27;20187;-48
2022/12/02 04:10:55;;;;;;;36.42;15.95;;;3.00;99.90;;;;;;5133974;27;20031;-47
2022/12/02 04:13:20;;;;;;;33.65;15.13;;;3.10;99.90;;;;;;5134197;27;20370;-47
2022/12/02 04:15:46;;;;;;;34.63;15.02;;;3.10;99.90;;;;;;5134035;27;20508;-49
2022/12/02 04:18:12;;;;;;;32.90;14.23;;;3.00;99.90;;;;;;5133809;27;20032;-46
2022/12/02 04:20:38;;;;;;;29.52;13.57;;;3.00;99.90;;;;;;5133606;27;20035;-49
2022/12/02 04:23:03;;;;;;;39.08;15.77;;;3.00;99.90;;;;;;5133999;27;20057;-50
2022/12/02 04:25:29;;;;;;;34.95;16.85;;;3.00;99.90;;;;;;5115278;27;20035;-50
2022/12/02 04:27:55;;;;;;;36.55;15.43;;;3.00;99.90;;;;;;5133845;27;20397;-49
2022/12/02 04:30:20;;;;;;;34.33;15.40;;;3.00;99.90;;;;;;5133618;27;20064;-48
2022/12/02 04:32:46;;;;;;;32.15;14.57;;;3.00;99.90;;;;;;5134273;27;20447;-51
2022/12/02 04:35:12;;;;;;;35.30;16.15;;;2.90;99.90;;;;;;5133205;27;20035;-52
2022/12/02 04:37:37;;;;;;;32.97;15.00;;;3.00;99.90;;;;;;5133855;27;20035;-50
2022/12/02 04:40:05;;;;;;;36.85;15.20;;;3.00;99.90;;;;;;5133648;27;20143;-52
2022/12/02 04:42:31;;;;;;;34.40;14.60;;;3.00;99.90;;;;;;5132468;27;20489;-48
2022/12/02 04:44:56;;;;;;;38.65;14.13;;;2.90;99.90;;;;;;5133586;27;20042;-48
2022/12/02 04:47:22;;;;;;;32.03;14.02;;;2.90;99.90;;;;;;5133529;27;20458;-48
2022/12/02 04:49:48;;;;;;;33.08;13.80;;;2.90;99.90;;;;;;5114788;27;20075;-48
2022/12/02 04:52:14;;;;;;;35.47;15.77;;;2.80;99.90;;;;;;5132851;27;20063;-47
2022/12/02 04:54:40;;;;;;;33.00;13.60;;;2.90;99.90;;;;;;5133047;27;20050;-50
2022/12/02 04:57:06;;;;;;;31.27;14.45;;;3.10;99.90;;;;;;5133244;27;20039;-50
2022/12/02 04:59:32;;;;;;;33.42;13.50;;;2.80;99.90;;;;;;5131977;27;20088;-47
2022/12/02 05:01:57;;;;;;;26.85;12.70;;;2.70;99.90;;;;;;5133084;27;20035;-51
2022/12/02 05:04:23;;;;;;;28.73;13.52;;;2.80;99.90;;;;;;5133442;27;20501;-48
2022/12/02 05:06:49;;;;;;;31.33;13.07;;;2.70;99.90;;;;;;5115210;27;20046;-48
2022/12/02 05:09:14;;;;;;;32.78;13.40;;;2.70;99.90;;;;;;5133089;27;20039;-48
2022/12/02 05:11:40;;;;;;;27.58;13.07;;;2.70;99.90;;;;;;5132982;27;20035;-47
2022/12/02 05:14:06;;;;;;;31.35;13.82;;;2.70;99.90;;;;;;5132916;27;20043;-51
2022/12/02 05:16:31;;;;;;;33.28;13.05;;;2.70;99.90;;;;;;5091666;27;20028;-50
2022/12/02 05:18:57;;;;;;;28.38;12.98;;;2.70;99.90;;;;;;5133398;27;20471;-49
2022/12/02 05:21:22;;;;;;;30.48;13.02;;;2.60;99.90;;;;;;5132853;27;20035;-48
2022/12/02 05:23:48;;;;;;;26.35;11.88;;;2.70;99.90;;;;;;5132917;27;20035;-48
2022/12/02 05:26:14;;;;;;;27.10;11.73;;;2.70;99.90;;;;;;5132884;27;20042;-49
2022/12/02 05:28:39;;;;;;;29.20;12.57;;;2.60;99.90;;;;;;5114150;27;20161;-47
2022/12/02 05:31:05;;;;;;;31.35;13.02;;;2.60;99.90;;;;;;5132396;27;20122;-47
2022/12/02 05:33:31;;;;;;;31.73;13.40;;;2.60;99.90;;;;;;5113987;27;20042;-48
2022/12/02 05:35:56;;;;;;;36.30;13.57;;;2.60;99.90;;;;;;5131971;27;20490;-48
2022/12/02 05:38:22;;;;;;;33.53;13.93;;;2.70;99.90;;;;;;5114225;27;20412;-47
2022/12/02 05:40:49;;;;;;;34.22;13.15;;;2.60;99.90;;;;;;5132197;27;20051;-47
2022/12/02 05:43:24;;;;;;;33.42;12.30;;;2.60;99.90;;;;;;5114023;27;20490;-49
2022/12/02 05:45:51;;;;;;;37.58;14.30;;;2.50;99.90;;;;;;5132501;27;20031;-49
2022/12/02 05:48:18;;;;;;;39.80;13.65;;;2.50;99.90;;;;;;5132232;27;20047;-47
2022/12/02 05:50:45;;;;;;;29.85;12.60;;;2.60;99.90;;;;;;5131935;27;20461;-51
2022/12/02 05:53:28;;;;;;;34.75;13.68;;;2.50;99.90;;;;;;5132298;27;20043;-49
2022/12/02 05:55:55;;;;;;;33.88;13.48;;;2.50;99.90;;;;;;5132216;27;20059;-48
2022/12/02 05:58:22;;;;;;;28.98;12.65;;;2.50;99.90;;;;;;5128738;27;20071;-52
2022/12/02 06:00:59;;;;;;;34.17;14.13;;;2.50;99.90;;;;;;5131919;27;20035;-48
2022/12/02 06:03:25;;;;;;;33.72;13.07;;;2.60;99.90;;;;;;5131960;27;20160;-49
2022/12/02 06:05:52;;;;;;;31.17;13.48;;;2.50;99.90;;;;;;5131842;27;20564;-48
2022/12/02 06:08:31;;;;;;;38.40;14.85;;;2.50;99.90;;;;;;5131529;27;20104;-50
2022/12/02 06:11:01;;;;;;;33.45;13.18;;;2.40;99.90;;;;;;5131462;27;20492;-48
2022/12/02 06:13:30;;;;;;;36.03;14.35;;;2.50;99.90;;;;;;5131440;27;20055;-49
2022/12/02 06:15:57;;;;;;;39.70;14.73;;;2.50;99.90;;;;;;5131410;27;20035;-48
2022/12/02 06:18:33;;;;;;;44.10;15.45;;;2.40;99.90;;;;;;5112851;27;20058;-47
2022/12/02 06:21:09;;;;;;;34.97;14.10;;;2.50;99.90;;;;;;5131009;27;20039;-53
2022/12/02 06:23:41;;;;;;;44.85;15.82;;;2.40;99.90;;;;;;5131627;27;20047;-51
2022/12/02 06:26:07;;;;;;;39.53;15.18;;;2.50;99.90;;;;;;5131623;27;20045;-52
2022/12/02 06:28:41;;;;;;;38.47;15.00;;;3.50;99.90;;;;;;5131301;27;20545;-49
2022/12/02 06:31:24;;;;;;;44.42;15.05;;;2.40;99.90;;;;;;5131739;27;20043;-50
2022/12/02 06:33:52;;;;;;;40.35;15.32;;;2.30;99.90;;;;;;5131500;27;20473;-51
2022/12/02 06:36:22;;;;;;;42.40;16.77;;;2.30;99.90;;;;;;5130934;27;20129;-50
2022/12/02 06:38:55;;;;;;;43.28;15.48;;;2.30;99.90;;;;;;5130817;27;20051;-49
2022/12/02 06:41:24;;;;;;;42.08;16.40;;;2.20;99.90;;;;;;5131360;27;20042;-47
2022/12/02 06:46:36;;;;;;;46.17;15.90;;;2.20;99.90;;;;;;5131060;27;20043;-49
2022/12/02 06:49:24;;;;;;;45.08;16.05;;;2.20;99.90;;;;;;5130967;27;20046;-49
2022/12/02 06:52:02;;;;;;;40.28;15.35;;;2.30;99.90;;;;;;5129089;27;20039;-48
2022/12/02 06:54:31;;;;;;;44.67;17.25;;;2.20;99.90;;;;;;5131247;27;20054;-49
2022/12/02 06:56:59;;;;;;;43.50;16.65;;;2.20;99.90;;;;;;5131036;27;20382;-48
2022/12/02 06:59:27;;;;;;;45.40;17.25;;;2.20;99.90;;;;;;5112206;27;20031;-51
2022/12/02 07:01:55;;;;;;;46.60;17.85;;;2.20;99.90;;;;;;5130580;27;20034;-48
2022/12/02 07:04:28;;;;;;;46.47;17.75;;;2.10;99.90;;;;;;5112196;27;20129;-49
2022/12/02 07:06:58;;;;;;;49.05;17.70;;;2.10;99.90;;;;;;5130807;27;20366;-49
2022/12/02 07:09:43;;;;;;;46.00;18.15;;;2.20;99.90;;;;;;5130533;27;20035;-47
2022/12/02 07:12:17;;;;;;;45.28;17.23;;;2.20;99.90;;;;;;5129252;27;20039;-50
2022/12/02 07:14:49;;;;;;;54.92;19.02;;;2.30;99.90;;;;;;5131025;27;20114;-50
2022/12/02 07:17:26;;;;;;;49.92;17.95;;;2.20;99.90;;;;;;5130391;27;20039;-48
2022/12/02 07:19:57;;;;;;;51.22;18.05;;;2.20;99.90;;;;;;5130489;27;20038;-47
2022/12/02 07:22:30;;;;;;;54.92;18.45;;;2.20;99.90;;;;;;5130049;27;21177;-48
2022/12/02 07:25:23;;;;;;;49.20;18.58;;;2.20;99.90;;;;;;5130185;27;20160;-47
2022/12/02 07:27:50;;;;;;;50.72;18.75;;;2.20;99.90;;;;;;5112125;27;20113;-46
2022/12/02 07:30:19;;;;;;;53.90;18.75;;;2.10;99.90;;;;;;5111563;27;20039;-49
2022/12/02 07:32:45;;;;;;;50.47;19.52;;;2.10;99.90;;;;;;5130314;27;20512;-48
2022/12/02 07:35:10;;;;;;;47.63;17.90;;;2.10;99.90;;;;;;5130013;27;20177;-49
2022/12/02 07:37:36;;;;;;;54.10;18.98;;;2.10;99.90;;;;;;5130224;27;20043;-47
2022/12/02 07:40:02;;;;;;;59.60;19.83;;;2.10;99.90;;;;;;5111809;28;20035;-51
2022/12/02 07:42:27;;;;;;;63.53;20.95;;;2.10;99.90;;;;;;5130462;28;20114;-47
2022/12/02 07:44:53;;;;;;;62.15;21.63;;;2.20;99.90;;;;;;5131056;28;20114;-49
2022/12/02 07:47:19;;;;;;;56.83;19.27;;;2.10;99.90;;;;;;5130294;28;20036;-47
2022/12/02 07:49:44;;;;;;;60.13;20.88;;;2.10;99.90;;;;;;5130255;28;20511;-50
2022/12/02 07:52:10;;;;;;;56.05;19.35;;;2.10;99.90;;;;;;5129951;28;20561;-49
2022/12/02 07:54:36;;;;;;;58.20;19.25;;;2.10;99.90;;;;;;5129289;28;20466;-50
2022/12/02 07:57:01;;;;;;;63.22;20.10;;;2.40;99.90;;;;;;5112200;28;20489;-49
2022/12/02 07:59:27;;;;;;;60.47;20.45;;;2.10;99.90;;;;;;5130920;28;20031;-50
2022/12/02 08:01:53;;;;;;;61.00;20.13;;;2.20;99.90;;;;;;5130224;28;20035;-48
2022/12/02 08:04:18;;;;;;;58.72;20.38;;;2.10;99.90;;;;;;5130200;28;20363;-52
2022/12/02 08:06:44;;;;;;;61.13;19.80;;;2.20;99.90;;;;;;5130117;28;20035;-47
2022/12/02 08:09:10;;;;;;;61.72;19.85;;;2.30;99.90;;;;;;5129881;28;20043;-52
2022/12/02 08:11:35;;;;;;;59.35;19.90;;;2.40;99.90;;;;;;5129810;28;20050;-48
2022/12/02 08:14:01;;;;;;;60.40;19.83;;;2.60;99.90;;;;;;5130144;28;20027;-49
2022/12/02 08:16:27;;;;;;;61.42;21.00;;;2.40;99.90;;;;;;5111337;28;20043;-48
2022/12/02 08:18:53;;;;;;;57.30;20.13;;;2.40;99.90;;;;;;5129942;28;20421;-51
2022/12/02 08:21:18;;;;;;;64.97;21.05;;;2.40;99.90;;;;;;5129791;28;20462;-48
2022/12/02 08:23:44;;;;;;;57.08;20.85;;;2.50;99.90;;;;;;5130159;28;20764;-52
2022/12/02 08:26:10;;;;;;;63.13;21.92;;;2.40;99.90;;;;;;5130085;28;20046;-47
2022/12/02 08:28:35;;;;;;;62.67;21.05;;;2.50;99.90;;;;;;5129619;28;20115;-50
2022/12/02 08:31:01;;;;;;;54.20;20.25;;;2.40;99.90;;;;;;5129966;28;20035;-48
2022/12/02 08:33:27;;;;;;;63.38;20.13;;;2.30;99.90;;;;;;5129583;28;20035;-48
2022/12/02 08:35:52;;;;;;;59.90;19.75;;;2.40;99.90;;;;;;5131401;27;20055;-51
2022/12/02 08:38:18;;;;;;;62.88;19.88;;;2.30;99.90;;;;;;5133661;27;20077;-49
2022/12/02 08:40:44;;;;;;;58.97;22.23;;;2.40;99.90;;;;;;5115075;27;20482;-48
2022/12/02 08:43:10;;;;;;;53.90;20.25;;;2.30;99.90;;;;;;5133894;27;20042;-48
2022/12/02 08:45:36;;;;;;;60.28;20.13;;;2.40;99.90;;;;;;5132528;27;20097;-47
2022/12/02 08:48:02;;;;;;;58.72;20.48;;;2.40;99.90;;;;;;5125967;27;20406;-48
2022/12/02 08:50:27;;;;;;;54.30;20.05;;;2.40;99.90;;;;;;5125712;27;20073;-50
2022/12/02 08:52:53;;;;;;;56.92;19.90;;;2.40;99.90;;;;;;5128098;27;20042;-49
2022/12/02 08:55:19;;;;;;;60.90;21.45;;;2.40;99.90;;;;;;5129523;27;20027;-49
2022/12/02 08:57:45;;;;;;;59.97;21.45;;;2.40;99.90;;;;;;5125334;27;20042;-48
2022/12/02 09:00:11;;;;;;;58.63;21.05;;;2.50;99.90;;;;;;5114086;27;20514;-49
2022/12/02 09:02:37;;;;;;;60.30;20.95;;;2.40;99.90;;;;;;5132808;27;20119;-49
2022/12/02 09:05:03;;;;;;;55.83;20.58;;;2.50;99.90;;;;;;5133828;27;20043;-48
2022/12/02 09:07:29;;;;;;;58.72;20.17;;;2.50;99.90;;;;;;5133116;27;20031;-49
2022/12/02 09:09:55;;;;;;;50.42;18.70;;;2.50;99.90;;;;;;5123509;27;20513;-50
2022/12/02 09:12:21;;;;;;;54.53;18.63;;;2.50;99.90;;;;;;5107359;27;20492;-50
2022/12/02 09:14:46;;;;;;;53.45;19.35;;;2.50;99.90;;;;;;5108255;27;20478;-49
2022/12/02 09:17:12;;;;;;;52.35;18.40;;;2.50;99.90;;;;;;5127643;27;20042;-50
2022/12/02 09:19:38;;;;;;;59.25;19.77;;;2.50;99.90;;;;;;5127570;27;20031;-48
2022/12/02 09:22:03;;;;;;;50.05;17.77;;;2.50;99.90;;;;;;5127183;27;20042;-47
2022/12/02 09:24:29;;;;;;;53.60;18.65;;;2.40;99.90;;;;;;5127307;27;20042;-47
2022/12/02 09:26:55;;;;;;;53.70;17.88;;;2.50;99.90;;;;;;5109051;27;20027;-46
2022/12/02 09:29:20;;;;;;;48.55;16.55;;;2.50;99.90;;;;;;5126653;27;20035;-48
2022/12/02 09:31:46;;;;;;;49.33;18.90;;;2.50;99.90;;;;;;5107974;27;20483;-48
2022/12/02 09:34:12;;;;;;;50.97;17.98;;;2.60;99.90;;;;;;5127003;27;20445;-48
2022/12/02 09:36:37;;;;;;;55.58;18.98;;;2.50;99.90;;;;;;5127168;27;20510;-47
2022/12/02 09:39:03;;;;;;;48.45;17.98;;;2.60;99.90;;;;;;5126387;27;20531;-48
2022/12/02 09:41:29;;;;;;;50.30;18.45;;;2.50;99.90;;;;;;5125897;27;20482;-47
2022/12/02 09:43:55;;;;;;;51.50;18.73;;;2.60;99.90;;;;;;5123283;27;20039;-49
2022/12/02 09:46:21;;;;;;;47.05;17.42;;;2.50;99.90;;;;;;5123298;27;20035;-48
2022/12/02 09:48:47;;;;;;;47.75;17.20;;;3.00;99.90;;;;;;5124184;27;20550;-49
2022/12/02 09:51:13;;;;;;;46.90;17.70;;;2.60;99.90;;;;;;5123330;27;20070;-49
2022/12/02 09:53:41;;;;;;;48.45;17.52;;;2.60;99.90;;;;;;5124658;27;20510;-49
2022/12/02 09:56:16;;;;;;;48.13;18.17;;;2.60;99.90;;;;;;5105063;27;20390;-48
2022/12/02 09:58:43;;;;;;;48.35;18.05;;;2.60;99.90;;;;;;5124047;27;20381;-50
2022/12/02 10:01:13;;;;;;;48.88;17.15;;;2.70;99.90;;;;;;5125860;27;20142;-50
2022/12/02 10:03:40;;;;;;;50.22;17.08;;;2.60;99.90;;;;;;5123146;27;20765;-45
2022/12/02 10:06:12;;;;;;;46.00;18.33;;;3.20;99.90;;;;;;5124211;27;20504;-47
2022/12/02 10:08:38;;;;;;;47.88;16.90;;;2.70;99.90;;;;;;5123923;27;20042;-47
2022/12/02 10:11:05;;;;;;;54.08;18.58;;;2.70;99.90;;;;;;5123702;27;20039;-46
2022/12/02 10:13:35;;;;;;;56.10;19.25;;;2.70;99.90;;;;;;5106755;27;20394;-46
2022/12/02 10:16:02;;;;;;;53.08;19.45;;;2.70;99.90;;;;;;5104994;27;20031;-47
2022/12/02 10:18:30;;;;;;;55.60;19.55;;;2.80;99.90;;;;;;5122002;27;20135;-46
2022/12/02 10:20:56;;;;;;;53.33;18.17;;;2.80;99.90;;;;;;5106447;27;20386;-47
2022/12/02 10:23:23;;;;;;;58.53;18.73;;;2.80;99.90;;;;;;5123905;27;20043;-46
2022/12/02 10:26:12;;;;;;;59.75;19.58;;;2.80;99.90;;;;;;5120672;27;20034;-47
2022/12/02 10:28:39;;;;;;;55.03;18.80;;;2.80;99.90;;;;;;5122367;27;20059;-46
2022/12/02 10:31:18;;;;;;;51.97;18.70;;;2.90;99.90;;;;;;5122040;27;20046;-50
2022/12/02 10:33:53;;;;;;;53.88;18.85;;;2.80;99.90;;;;;;5122910;27;20038;-50
2022/12/02 10:36:38;;;;;;;49.80;19.42;;;2.90;99.90;;;;;;5121799;27;20068;-46
2022/12/02 10:39:29;;;;;;;52.75;18.75;;;2.80;99.90;;;;;;5124000;27;20039;-48
2022/12/02 10:42:06;;;;;;;53.92;19.75;;;2.90;99.90;;;;;;5124154;27;20506;-49
2022/12/02 10:44:34;;;;;;;53.33;19.58;;;2.90;99.90;;;;;;5122512;27;20397;-50
2022/12/02 10:47:18;;;;;;;60.63;20.77;;;2.90;99.90;;;;;;5105186;27;20378;-48
2022/12/02 10:49:51;;;;;;;;;;;3.00;99.90;;;;;;5123775;27;20123;-48
2022/12/02 10:52:27;;;;;;;51.80;18.63;;;3.00;99.90;;;;;;5122624;27;20256;-47
2022/12/02 10:54:53;;;;;;;53.83;18.73;;;3.00;99.90;;;;;;5123481;27;20093;-47
2022/12/02 10:57:24;;;;;;;52.67;17.48;;;3.10;99.90;;;;;;5122501;27;20044;-49
2022/12/02 10:59:51;;;;;;;50.22;18.02;;;3.10;99.90;;;;;;5122908;27;20039;-49
2022/12/02 11:02:31;;;;;;;49.33;17.17;;;3.00;99.90;;;;;;5123480;27;20046;-48
2022/12/02 11:05:00;;;;;;;49.25;16.67;;;3.10;99.90;;;;;;5123085;27;20095;-49
2022/12/02 11:07:26;;;;;;;44.47;16.00;;;3.10;99.90;;;;;;5123723;27;20160;-48
2022/12/02 11:09:54;;;;;;;43.13;14.93;;;3.00;99.90;;;;;;5123939;27;20038;-47
2022/12/02 11:12:49;;;;;;;42.30;15.13;;;3.10;99.90;;;;;;5121915;27;20050;-47
2022/12/02 11:15:39;;;;;;;42.22;15.52;;;3.10;99.90;;;;;;5102475;27;20138;-49
2022/12/02 11:18:07;;;;;;;46.55;16.55;;;3.10;99.90;;;;;;5122270;27;20373;-45
2022/12/02 11:20:36;;;;;;;43.25;15.13;;;3.10;99.90;;;;;;5103868;27;20034;-48
2022/12/02 11:23:13;;;;;;;47.45;15.98;;;3.10;99.90;;;;;;5122859;27;20066;-47
2022/12/02 11:25:42;;;;;;;46.83;15.85;;;3.10;99.90;;;;;;5122993;27;20575;-47
2022/12/02 11:28:17;;;;;;;51.10;15.48;;;3.10;99.90;;;;;;5123358;27;20037;-47
2022/12/02 11:30:44;;;;;;;43.65;15.25;;;3.00;99.90;;;;;;5121870;27;20138;-47
2022/12/02 11:33:11;;;;;;;47.63;17.23;;;3.10;99.90;;;;;;5121707;27;20035;-46
2022/12/02 11:36:05;;;;;;;47.20;17.10;;;3.00;99.90;;;;;;5123046;27;20053;-48
2022/12/02 11:38:45;;;;;;;50.15;17.27;;;3.00;99.90;;;;;;5122974;27;20031;-47
2022/12/02 11:41:11;;;;;;;42.55;15.40;;;3.00;99.90;;;;;;5088774;28;20165;-47
2022/12/02 11:43:43;;;;;;;42.58;16.58;;;3.10;99.90;;;;;;5106253;28;20035;-46
2022/12/02 11:46:10;;;;;;;41.20;16.20;;;3.00;99.90;;;;;;5124601;28;20110;-48
2022/12/02 11:48:46;;;;;;;48.15;16.35;;;2.90;99.90;;;;;;5124261;28;20039;-47
2022/12/02 11:51:27;;;;;;;38.95;15.40;;;2.90;99.90;;;;;;5103278;28;20203;-46
2022/12/02 11:53:54;;;;;;;45.53;16.38;;;2.90;99.90;;;;;;5122181;28;20039;-46
2022/12/02 11:56:20;;;;;;;45.15;16.65;;;2.90;99.90;;;;;;5124874;28;20439;-50
2022/12/02 11:58:45;;;;;;;51.20;16.10;;;3.30;99.90;;;;;;5122776;28;20069;-47
2022/12/02 12:01:12;;;;;;;43.83;16.30;;;3.10;99.90;;;;;;5124810;28;20039;-48
2022/12/02 12:03:49;;;;;;;41.10;15.40;;;2.80;99.90;;;;;;5124286;28;20043;-47
2022/12/02 12:06:24;;;;;;;44.97;16.38;;;2.80;99.90;;;;;;5123666;28;20486;-48
2022/12/02 12:08:54;;;;;;;;;;;2.90;99.90;;;;;;5121968;27;20044;-50
2022/12/02 12:11:27;;;;;;;40.47;15.25;;;2.80;99.90;;;;;;5124375;27;19920;-50
2022/12/02 12:14:11;;;;;;;43.35;16.17;;;2.80;99.90;;;;;;5127545;27;20355;-49
2022/12/02 12:16:39;;;;;;;;;;;2.80;99.90;;;;;;5117869;27;20035;-49
2022/12/02 12:19:11;;;;;;;46.42;15.52;;;2.80;99.90;;;;;;5107529;27;20286;-50
2022/12/02 12:21:41;;;;;;;43.92;16.08;;;2.90;99.90;;;;;;5108064;27;20049;-47
2022/12/02 12:24:25;;;;;;;40.15;16.50;;;2.90;99.90;;;;;;5123632;27;20047;-49
2022/12/02 12:27:03;;;;;;;41.40;16.77;;;2.90;99.90;;;;;;5122385;27;20394;-46
2022/12/02 12:29:39;;;;;;;48.33;18.65;;;2.80;99.90;;;;;;5125928;27;20479;-49
2022/12/02 12:32:06;;;;;;;50.88;18.60;;;2.80;99.90;;;;;;5125197;27;20050;-49
2022/12/02 12:34:32;;;;;;;51.28;18.98;;;2.80;99.90;;;;;;5129724;27;20035;-46
2022/12/02 12:36:59;;;;;;;57.97;19.63;;;2.80;99.90;;;;;;5125388;27;20059;-47
2022/12/02 12:39:24;;;;;;;55.00;21.55;;;2.70;99.90;;;;;;5128663;27;20386;-46
2022/12/02 12:41:50;;;;;;;51.13;19.67;;;2.80;99.90;;;;;;5127287;27;20154;-47
2022/12/02 12:44:16;;;;;;;57.15;21.08;;;2.80;99.90;;;;;;5125263;27;20060;-46
2022/12/02 12:46:43;;;;;;;54.72;20.77;;;2.80;99.90;;;;;;5129739;27;20490;-45
2022/12/02 12:49:08;;;;;;;57.30;21.10;;;4.10;99.90;;;;;;5131746;27;20486;-46
2022/12/02 12:51:34;;;;;;;56.33;22.33;;;2.80;99.90;;;;;;5132797;27;20046;-47